createdAt,value
2018-02-25T00:20:55.140Z,9.03
2018-02-25T00:23:22.922Z,11.00
2018-02-25T00:25:50.704Z,9.50
2018-02-25T01:00:55.901Z,9.63
2018-02-25T01:03:23.708Z,9.93
2018-02-25T01:05:51.518Z,11.23
2018-02-25T01:08:19.317Z,13.77
2018-02-25T01:10:47.082Z,12.63
2018-02-25T01:13:14.882Z,9.87
2018-02-25T01:15:42.759Z,11.87
2018-02-25T01:18:11.339Z,9.33
2018-02-25T01:20:39.918Z,9.00
2018-02-25T01:23:08.482Z,11.17
2018-02-25T01:25:36.267Z,8.73
2018-02-25T01:28:04.833Z,8.90
2018-02-25T01:30:32.634Z,9.97
2018-02-25T01:33:00.425Z,9.40
2018-02-25T01:35:28.221Z,9.20
2018-02-25T01:37:56.073Z,11.17
2018-02-25T01:40:23.862Z,10.00
2018-02-25T01:42:51.716Z,9.90
2018-02-25T01:45:19.543Z,10.80
2018-02-25T01:47:47.332Z,11.00
2018-02-25T01:50:15.111Z,10.13
2018-02-25T01:52:42.906Z,10.63
2018-02-25T01:55:11.489Z,10.00
2018-02-25T01:57:40.034Z,9.60
2018-02-25T02:00:07.830Z,12.60
2018-02-25T02:02:36.382Z,15.10
2018-02-25T02:05:04.182Z,10.93
2018-02-25T02:07:32.737Z,11.87
2018-02-25T02:10:00.517Z,10.17
2018-02-25T02:12:28.319Z,9.20
2018-02-25T02:14:56.099Z,10.90
2018-02-25T02:17:23.929Z,10.30
2018-02-25T02:19:52.465Z,14.33
2018-02-25T02:22:20.250Z,10.77
2018-02-25T02:24:48.022Z,11.43
2018-02-25T02:27:15.801Z,11.77
2018-02-25T02:29:43.582Z,11.60
2018-02-25T02:32:11.433Z,12.63
2018-02-25T02:34:40.006Z,9.57
2018-02-25T02:37:08.558Z,8.87
2018-02-25T02:39:36.356Z,9.10
2018-02-25T02:42:04.909Z,12.30
2018-02-25T02:44:32.691Z,9.47
2018-02-25T02:47:01.273Z,8.00
2018-02-25T02:49:29.071Z,8.87
2018-02-25T02:51:56.876Z,8.27
2018-02-25T02:54:24.664Z,9.13
2018-02-25T02:56:53.242Z,11.70
2018-02-25T02:59:21.013Z,8.80
2018-02-25T03:01:48.822Z,8.80
2018-02-25T03:04:16.626Z,10.07
2018-02-25T03:06:44.489Z,11.13
2018-02-25T03:09:12.285Z,11.00
2018-02-25T03:11:40.832Z,9.60
2018-02-25T03:14:08.634Z,8.00
2018-02-25T03:16:37.173Z,10.83
2018-02-25T03:19:04.937Z,9.73
2018-02-25T03:21:32.721Z,9.90
2018-02-25T03:24:00.503Z,9.20
2018-02-25T03:26:29.102Z,9.60
2018-02-25T03:28:56.970Z,8.83
2018-02-25T03:31:24.746Z,9.97
2018-02-25T03:33:52.601Z,8.80
2018-02-25T03:36:20.372Z,10.37
2018-02-25T03:38:48.165Z,9.57
2018-02-25T03:41:15.939Z,11.20
2018-02-25T03:43:43.741Z,8.30
2018-02-25T03:46:12.278Z,9.70
2018-02-25T03:48:40.053Z,14.20
2018-02-25T03:51:07.833Z,9.00
2018-02-25T03:53:35.636Z,9.50
2018-02-25T03:56:03.415Z,11.40
2018-02-25T03:58:31.196Z,10.27
2018-02-25T04:00:59.015Z,9.23
2018-02-25T04:03:27.546Z,9.90
2018-02-25T04:05:55.325Z,9.07
2018-02-25T04:08:23.093Z,8.53
2018-02-25T04:10:50.877Z,8.10
2018-02-25T04:13:19.428Z,7.87
2018-02-25T04:15:47.234Z,8.37
2018-02-25T04:18:15.785Z,12.37
2018-02-25T04:20:43.601Z,14.37
2018-02-25T04:23:11.380Z,9.90
2018-02-25T04:25:39.154Z,10.80
2018-02-25T04:28:06.939Z,8.73
2018-02-25T04:30:34.741Z,11.50
2018-02-25T04:33:03.278Z,8.70
2018-02-25T04:35:31.065Z,8.93
2018-02-25T04:37:58.849Z,8.43
2018-02-25T04:40:27.405Z,8.33
2018-02-25T04:42:55.186Z,12.83
2018-02-25T04:45:23.733Z,10.60
2018-02-25T04:47:51.506Z,9.90
2018-02-25T04:50:19.273Z,12.93
2018-02-25T04:52:47.067Z,13.30
2018-02-25T04:55:14.904Z,14.37
2018-02-25T04:57:42.690Z,13.80
2018-02-25T05:00:11.221Z,9.57
2018-02-25T05:02:39.005Z,12.60
2018-02-25T05:05:06.782Z,9.57
2018-02-25T05:07:34.572Z,11.80
2018-02-25T05:10:03.177Z,9.77
2018-02-25T05:12:30.982Z,12.73
2018-02-25T05:14:58.782Z,10.17
2018-02-25T05:17:27.329Z,12.97
2018-02-25T05:19:55.094Z,10.47
2018-02-25T05:22:22.858Z,9.90
2018-02-25T05:24:50.691Z,9.70
2018-02-25T05:27:18.482Z,9.33
2018-02-25T05:29:46.269Z,9.13
2018-02-25T05:32:14.102Z,9.17
2018-02-25T05:34:41.874Z,10.47
2018-02-25T05:37:09.645Z,14.20
2018-02-25T05:39:37.410Z,9.97
2018-02-25T05:42:05.187Z,11.97
2018-02-25T05:44:32.961Z,8.60
2018-02-25T05:47:00.738Z,14.73
2018-02-25T05:49:29.283Z,11.73
2018-02-25T05:51:57.082Z,9.73
2018-02-25T05:54:25.617Z,8.53
2018-02-25T05:56:53.392Z,9.90
2018-02-25T05:59:21.194Z,10.20
2018-02-25T06:01:49.776Z,9.70
2018-02-25T06:04:18.319Z,9.10
2018-02-25T06:06:46.112Z,10.67
2018-02-25T06:09:13.899Z,8.80
2018-02-25T06:11:42.504Z,11.47
2018-02-25T06:14:10.288Z,10.27
2018-02-25T06:16:38.098Z,13.60
2018-02-25T06:19:06.678Z,9.23
2018-02-25T06:21:35.255Z,13.90
2018-02-25T06:24:03.063Z,24.10
2018-02-25T06:26:30.855Z,12.00
2018-02-25T06:28:58.675Z,9.73
2018-02-25T06:31:26.577Z,10.27
2018-02-25T06:33:54.386Z,13.33
2018-02-25T06:36:22.950Z,16.93
2018-02-25T06:38:50.745Z,10.53
2018-02-25T06:41:19.313Z,12.10
2018-02-25T06:43:47.147Z,12.47
2018-02-25T06:46:15.768Z,9.83
2018-02-25T06:48:44.350Z,11.40
2018-02-25T06:51:12.942Z,13.03
2018-02-25T06:53:41.519Z,22.77
2018-02-25T06:56:10.094Z,15.30
2018-02-25T06:58:38.689Z,13.43
2018-02-25T07:01:07.275Z,13.63
2018-02-25T07:03:35.838Z,13.53
2018-02-25T07:06:03.701Z,9.93
2018-02-25T07:08:31.514Z,15.07
2018-02-25T07:10:59.325Z,11.87
2018-02-25T07:13:27.145Z,21.90
2018-02-25T07:15:54.935Z,17.13
2018-02-25T07:18:22.749Z,16.90
2018-02-25T07:20:51.286Z,22.50
2018-02-25T07:23:19.110Z,15.43
2018-02-25T07:25:46.898Z,13.07
2018-02-25T07:28:14.711Z,14.43
2018-02-25T07:30:43.253Z,14.05
2018-02-25T07:33:11.026Z,11.93
2018-02-25T07:35:38.823Z,11.80
2018-02-25T07:38:07.780Z,14.00
2018-02-25T07:40:35.549Z,13.50
2018-02-25T07:43:03.358Z,13.37
2018-02-25T07:45:31.917Z,14.80
2018-02-25T07:47:59.743Z,11.90
2018-02-25T07:50:27.584Z,14.57
2018-02-25T07:52:55.369Z,17.23
2018-02-25T07:55:23.213Z,11.33
2018-02-25T07:57:51.018Z,14.00
2018-02-25T08:00:18.829Z,11.83
2018-02-25T08:02:47.447Z,10.70
2018-02-25T08:05:15.229Z,18.40
2018-02-25T08:07:43.762Z,12.60
2018-02-25T08:10:12.297Z,18.60
2018-02-25T08:12:40.074Z,21.90
2018-02-25T08:15:07.881Z,14.80
2018-02-25T08:17:35.714Z,15.60
2018-02-25T08:20:03.543Z,15.43
2018-02-25T08:22:31.365Z,15.40
2018-02-25T08:24:59.912Z,13.10
2018-02-25T08:27:27.710Z,13.50
2018-02-25T08:29:56.317Z,19.23
2018-02-25T08:32:24.157Z,12.00
2018-02-25T08:34:52.734Z,12.65
2018-02-25T08:37:21.285Z,12.20
2018-02-25T08:39:49.129Z,14.70
2018-02-25T08:42:16.918Z,14.67
2018-02-25T08:44:44.711Z,15.57
2018-02-25T08:47:13.399Z,12.03
2018-02-25T08:49:42.019Z,13.33
2018-02-25T08:52:09.831Z,16.20
2018-02-25T08:54:37.676Z,15.37
2018-02-25T08:57:05.486Z,17.53
2018-02-25T08:59:34.089Z,16.50
2018-02-25T09:02:01.911Z,12.53
2018-02-25T09:04:29.698Z,17.63
2018-02-25T09:06:58.306Z,12.47
2018-02-25T09:09:26.100Z,12.47
2018-02-25T09:11:53.904Z,11.70
2018-02-25T09:14:22.469Z,15.93
2018-02-25T09:16:50.354Z,19.30
2018-02-25T09:19:18.941Z,13.30
2018-02-25T09:21:46.749Z,11.40
2018-02-25T09:24:14.546Z,15.37
2018-02-25T09:26:42.334Z,21.67
2018-02-25T09:29:10.944Z,15.90
2018-02-25T09:31:38.750Z,19.93
2018-02-25T09:34:06.537Z,16.23
2018-02-25T09:36:34.319Z,16.17
2018-02-25T09:39:02.949Z,13.33
2018-02-25T09:41:31.518Z,18.63
2018-02-25T09:43:59.351Z,17.10
2018-02-25T09:46:27.166Z,24.33
2018-02-25T09:48:54.969Z,40.77
2018-02-25T09:51:22.754Z,23.52
2018-02-25T09:53:50.538Z,15.13
2018-02-25T09:56:18.329Z,18.17
2018-02-25T09:58:46.138Z,16.03
2018-02-25T10:01:13.915Z,20.07
2018-02-25T10:03:41.706Z,15.50
2018-02-25T10:06:09.529Z,17.70
2018-02-25T10:08:38.107Z,17.87
2018-02-25T10:11:06.649Z,13.50
2018-02-25T10:13:34.433Z,13.87
2018-02-25T10:16:02.243Z,16.67
2018-02-25T10:18:30.127Z,12.57
2018-02-25T10:20:57.945Z,15.53
2018-02-25T10:23:25.724Z,16.27
2018-02-25T10:25:54.336Z,13.30
2018-02-25T10:28:22.132Z,11.30
2018-02-25T10:30:50.006Z,19.73
2018-02-25T10:33:17.827Z,14.87
2018-02-25T10:35:45.612Z,17.07
2018-02-25T10:38:13.402Z,20.10
2018-02-25T10:40:41.201Z,20.27
2018-02-25T10:43:09.325Z,19.03
2018-02-25T10:45:37.466Z,16.60
2018-02-25T10:48:05.388Z,15.30
2018-02-25T10:50:33.233Z,17.07
2018-02-25T10:53:01.053Z,15.40
2018-02-25T10:58:10.390Z,15.77
2018-02-25T11:03:29.995Z,12.90
2018-02-25T11:06:06.726Z,15.20
2018-02-25T11:11:44.991Z,16.40
2018-02-25T11:14:23.581Z,14.97
2018-02-25T11:17:04.947Z,14.13
2018-02-25T11:19:45.843Z,15.67
2018-02-25T11:22:31.304Z,13.20
2018-02-25T11:25:19.710Z,19.37
2018-02-25T11:27:53.308Z,17.27
2018-02-25T11:36:04.725Z,16.40
2018-02-25T11:38:36.131Z,17.03
2018-02-25T11:41:06.957Z,14.30
2018-02-25T11:43:50.404Z,19.30
2018-02-25T11:49:26.218Z,18.77
2018-02-25T11:52:18.182Z,18.70
2018-02-25T11:54:52.816Z,18.23
2018-02-25T12:00:38.561Z,17.13
2018-02-25T12:03:19.264Z,12.23
2018-02-25T12:05:57.483Z,17.00
2018-02-25T12:12:42.045Z,16.77
2018-02-25T12:15:24.181Z,11.87
2018-02-25T12:18:08.977Z,13.67
2018-02-25T12:20:54.463Z,14.63
2018-02-25T12:26:34.328Z,13.43
2018-02-25T12:32:17.336Z,12.53
2018-02-25T12:34:56.189Z,9.83
2018-02-25T12:46:09.472Z,11.20
2018-02-25T12:48:53.873Z,13.40
2018-02-25T12:57:32.323Z,10.43
2018-02-25T13:05:56.824Z,9.20
2018-02-25T13:11:13.279Z,9.27
2018-02-25T13:13:57.635Z,15.90
2018-02-25T13:16:35.524Z,10.57
2018-02-25T13:32:40.764Z,12.03
2018-02-25T13:41:06.522Z,13.80
2018-02-25T13:43:43.906Z,12.00
2018-02-25T13:46:22.119Z,18.63
2018-02-25T13:48:56.125Z,8.93
2018-02-25T13:51:34.667Z,14.57
2018-02-25T13:54:12.663Z,10.63
2018-02-25T13:56:45.942Z,10.00
2018-02-25T13:59:24.087Z,12.10
2018-02-25T14:01:57.885Z,10.77
2018-02-25T14:07:14.109Z,10.33
2018-02-25T14:09:54.304Z,10.87
2018-02-25T14:17:54.065Z,14.70
2018-02-25T14:20:29.062Z,16.67
2018-02-25T14:23:05.447Z,21.20
2018-02-25T14:28:40.917Z,10.23
2018-02-25T14:36:39.558Z,10.43
2018-02-25T14:39:17.429Z,11.23
2018-02-25T14:44:40.533Z,9.47
2018-02-25T14:47:18.416Z,12.53
2018-02-25T14:50:03.066Z,10.23
2018-02-25T14:58:03.273Z,12.67
2018-02-25T15:00:47.003Z,11.53
2018-02-25T15:06:13.699Z,12.40
2018-02-25T15:11:43.390Z,9.80
2018-02-25T15:17:12.047Z,10.67
2018-02-25T15:19:47.003Z,10.43
2018-02-25T15:22:21.818Z,12.80
2018-02-25T15:24:59.124Z,12.40
2018-02-25T15:27:37.693Z,14.93
2018-02-25T15:30:08.926Z,9.17
2018-02-25T15:32:45.755Z,10.40
2018-02-25T15:35:23.065Z,11.60
2018-02-25T15:43:16.335Z,11.57
2018-02-25T15:45:49.768Z,14.60
2018-02-25T15:48:27.694Z,14.83
2018-02-25T15:51:01.740Z,11.77
2018-02-25T15:53:40.477Z,17.47
2018-02-25T15:58:57.392Z,8.60
2018-02-25T16:01:40.257Z,10.40
2018-02-25T16:04:17.184Z,10.93
2018-02-25T16:09:30.772Z,11.37
2018-02-25T16:14:41.091Z,11.47
2018-02-25T16:17:17.050Z,16.50
2018-02-25T16:19:49.278Z,12.00
2018-02-25T16:22:23.921Z,14.03
2018-02-25T16:24:55.770Z,11.27
2018-02-25T16:27:33.107Z,10.17
2018-02-25T16:32:52.296Z,14.67
2018-02-25T16:35:24.416Z,13.77
2018-02-25T16:40:38.918Z,17.10
2018-02-25T16:43:11.478Z,13.17
2018-02-25T16:45:46.789Z,12.80
2018-02-25T16:48:17.863Z,15.73
2018-02-25T16:50:53.119Z,16.70
2018-02-25T16:53:25.803Z,15.57
2018-02-25T16:55:58.584Z,16.83
2018-02-25T16:58:29.831Z,20.57
2018-02-25T17:03:54.529Z,16.50
2018-02-25T17:12:12.437Z,19.20
2018-02-25T17:14:53.179Z,18.10
2018-02-25T17:17:39.052Z,20.87
2018-02-25T17:31:05.554Z,20.83
2018-02-25T17:33:50.035Z,15.18
2018-02-25T17:36:29.998Z,13.87
2018-02-25T17:39:13.515Z,14.33
2018-02-25T17:47:28.795Z,15.00
2018-02-25T17:50:15.105Z,17.13
2018-02-25T17:53:03.410Z,17.87
2018-02-25T17:55:56.198Z,13.53
2018-02-25T18:04:04.644Z,19.70
2018-02-25T18:09:33.584Z,17.50
2018-02-25T18:14:59.187Z,20.23
2018-02-25T18:17:39.778Z,17.97
2018-02-25T18:28:42.917Z,15.07
2018-02-25T18:31:23.484Z,18.30
2018-02-25T18:34:04.870Z,15.40
2018-02-25T18:42:47.338Z,15.17
2018-02-25T18:48:13.564Z,18.10
2018-02-25T18:50:56.288Z,21.60
2018-02-25T18:53:31.926Z,20.35
2018-02-25T18:56:12.183Z,22.67
2018-02-25T18:58:48.512Z,18.73
2018-02-25T19:01:23.359Z,25.20
2018-02-25T19:04:04.991Z,22.40
2018-02-25T19:06:41.445Z,20.57
2018-02-25T19:09:18.579Z,27.33
2018-02-25T19:12:02.248Z,34.23
2018-02-25T19:14:54.488Z,40.53
2018-02-25T19:20:25.447Z,37.57
2018-02-25T19:23:09.191Z,23.77
2018-02-25T19:28:40.702Z,20.70
2018-02-25T19:42:34.496Z,25.80
2018-02-25T19:45:12.183Z,27.70
2018-02-25T19:53:22.915Z,32.07
2018-02-25T19:55:55.786Z,31.83
2018-02-25T20:01:16.105Z,27.33
2018-02-25T20:03:57.065Z,28.33
2018-02-25T20:06:50.976Z,39.27
2018-02-25T20:09:28.134Z,33.70
2018-02-25T20:12:04.339Z,31.77
2018-02-25T20:14:49.974Z,36.40
2018-02-25T20:17:43.129Z,32.27
2018-02-25T20:20:30.560Z,29.47
2018-02-25T20:23:05.491Z,27.10
2018-02-25T20:31:16.713Z,31.50
2018-02-25T20:39:09.185Z,28.50
2018-02-25T20:41:46.692Z,28.60
2018-02-25T20:44:27.137Z,26.67
2018-02-25T20:47:05.751Z,32.30
2018-02-25T20:49:33.825Z,29.60
2018-02-25T20:52:01.606Z,33.47
2018-02-25T20:54:29.394Z,30.30
2018-02-25T20:56:58.017Z,33.47
2018-02-25T20:59:26.714Z,32.60
2018-02-25T21:01:54.574Z,29.73
2018-02-25T21:04:22.377Z,32.50
2018-02-25T21:06:50.211Z,27.27
2018-02-25T21:09:18.011Z,26.27
2018-02-25T21:11:46.564Z,34.93
2018-02-25T21:14:14.361Z,33.57
2018-02-25T21:16:42.924Z,27.37
2018-02-25T21:19:10.713Z,25.83
2018-02-25T21:21:39.308Z,28.17
2018-02-25T21:24:07.111Z,32.50
2018-02-25T21:26:34.907Z,28.50
2018-02-25T21:29:02.724Z,27.73
2018-02-25T21:31:30.508Z,25.10
2018-02-25T21:33:58.294Z,24.83
2018-02-25T21:36:26.090Z,26.20
2018-02-25T21:38:54.630Z,28.50
2018-02-25T21:41:22.464Z,26.43
2018-02-25T21:43:50.254Z,29.20
2018-02-25T21:46:18.031Z,24.30
2018-02-25T21:48:45.826Z,28.20
2018-02-25T21:51:14.385Z,30.93
2018-02-25T21:53:42.181Z,22.70
2018-02-25T21:56:16.381Z,24.00
2018-02-25T21:58:50.543Z,31.87
2018-02-25T22:01:23.993Z,27.03
2018-02-25T22:04:00.102Z,30.30
2018-02-25T22:06:27.925Z,28.30
2018-02-25T22:08:56.477Z,25.90
2018-02-25T22:11:24.271Z,25.70
2018-02-25T22:13:52.875Z,30.47
2018-02-25T22:16:20.665Z,29.80
2018-02-25T22:18:48.538Z,29.00
2018-02-25T22:21:16.327Z,30.53
2018-02-25T22:23:44.134Z,34.93
2018-02-25T22:26:11.979Z,25.97
2018-02-25T22:28:40.554Z,29.73
2018-02-25T22:31:09.102Z,25.47
2018-02-25T22:33:36.882Z,20.20
2018-02-25T22:36:04.670Z,19.93
2018-02-25T22:38:33.235Z,17.40
2018-02-25T22:41:01.064Z,17.83
2018-02-25T22:43:28.881Z,19.10
2018-02-25T22:45:57.442Z,21.83
2018-02-25T22:48:25.750Z,14.70
2018-02-25T22:50:54.333Z,21.73
2018-02-25T22:53:22.889Z,19.77
2018-02-25T22:55:50.689Z,21.40
2018-02-25T22:58:18.506Z,17.30
2018-02-25T23:00:46.329Z,16.00
2018-02-25T23:03:14.377Z,16.07
2018-02-25T23:05:42.954Z,25.40
2018-02-25T23:08:11.514Z,19.03
2018-02-25T23:10:39.377Z,16.57
2018-02-25T23:13:07.186Z,17.13
2018-02-25T23:15:34.988Z,18.10
2018-02-25T23:18:02.798Z,17.00
2018-02-25T23:20:31.400Z,17.47
2018-02-25T23:22:59.210Z,20.87
2018-02-25T23:25:27.031Z,17.93
2018-02-25T23:27:54.823Z,15.10
2018-02-25T23:30:22.607Z,15.50
2018-02-25T23:32:50.449Z,16.70
2018-02-25T23:35:18.246Z,18.47
2018-02-25T23:37:46.048Z,23.90
2018-02-25T23:40:14.604Z,18.03
2018-02-25T23:42:42.397Z,19.53
2018-02-25T23:45:10.234Z,17.33
2018-02-25T23:47:38.051Z,18.13
2018-02-25T23:50:05.836Z,21.03
2018-02-25T23:52:33.665Z,20.42
2018-02-25T23:55:01.446Z,26.30
2018-02-25T23:57:29.253Z,20.10
2018-02-25T23:59:57.911Z,21.80
